This is the latest recevied weather packets stored in our database for station/object KA0EGE. If no packets are shown the sender has not sent any weather packets the latest 10 day(s).
| Time | Temp. | Humidity | Pressure | Rain* | Wind** | Luminosity | Snow |
|---|---|---|---|---|---|---|---|
| 1777993916 | 23.33° C | 70% | 1018.8 hPa | 0 mm | - | 637 W/m² | - |
| 1777993611 | 23.89° C | 69% | 1018.8 hPa | 0 mm | - | 521 W/m² | - |
| 1777993309 | 23.89° C | 71% | 1018.8 hPa | 0 mm | - | 499 W/m² | - |
| 1777993004 | 23.89° C | 70% | 1019 hPa | 0 mm | - | 646 W/m² | - |
| 1777992703 | 22.78° C | 74% | 1019 hPa | 0 mm | - | 601 W/m² | - |
| 1777992400 | 22.78° C | 72% | 1018.9 hPa | 0 mm | - | 576 W/m² | - |
| 1777992097 | 23.33° C | 71% | 1018.8 hPa | 0 mm | - | 563 W/m² | - |
| 1777991795 | 22.78° C | 72% | 1018.8 hPa | 0 mm | - | 573 W/m² | - |
| 1777991492 | 22.78° C | 71% | 1018.9 hPa | 0 mm | - | 522 W/m² | - |
| 1777991189 | 22.78° C | 72% | 1018.9 hPa | 0 mm | - | 524 W/m² | - |
| 1777990886 | 22.22° C | 71% | 1018.8 hPa | 0 mm | - | 512 W/m² | - |
| 1777990584 | 22.22° C | 71% | 1018.8 hPa | 0 mm | - | 429 W/m² | - |
| 1777989977 | 21.67° C | 74% | 1018.7 hPa | 0 mm | - | 473 W/m² | - |
| 1777989674 | 21.11° C | 74% | 1018.5 hPa | 0 mm | - | 443 W/m² | - |
| 1777989370 | 20.56° C | 77% | 1018.4 hPa | 0 mm | - | 452 W/m² | - |
| 1777989067 | 20.56° C | 77% | 1018.6 hPa | 0 mm | - | 434 W/m² | - |
| 1777988762 | 20° C | 78% | 1018.6 hPa | 0 mm | - | 430 W/m² | - |
| 1777988460 | 19.44° C | 80% | 1018.7 hPa | 0 mm | - | 332 W/m² | - |
| 1777988157 | 19.44° C | 80% | 1018.7 hPa | 0 mm | - | 369 W/m² | - |
| 1777987853 | 19.44° C | 79% | 1018.6 hPa | 0 mm | - | 337 W/m² | - |
| 1777987549 | 18.89° C | 80% | 1018.8 hPa | 0 mm | - | 255 W/m² | - |
| 1777987247 | 18.89° C | 81% | 1018.7 hPa | 0 mm | - | 305 W/m² | - |
| 1777986943 | 18.33° C | 82% | 1018.5 hPa | 0 mm | - | 293 W/m² | - |
| 1777986642 | 17.78° C | 83% | 1018.7 hPa | 0 mm | - | 246 W/m² | - |
| 1777986339 | 17.78° C | 84% | 1018.4 hPa | 0 mm | - | 192 W/m² | - |
* Rain latest hour (hover to see other rain measurements)
** Current wind speed in m/s (hover to see current wind gust speed)